Time;durP1;ratioP1;P1;durP2;ratioP2;P2;SDS_P1;SDS_P2;PMS_P1;PMS_P2;Temp;Humidity;BMP_temperature;BMP_pressure;BME280_temperature;BME280_humidity;BME280_pressure;Samples;Min_cycle;Max_cycle;Signal;HPM_P1;HPM_P2
2024/03/24 00:00:15;;;;;;;1.25;0.73;;;;;;;1.95;100.00;95514.31;1031774;28;20061;-70
2024/03/24 00:00:46;;;;;;;3.92;0.68;;;;;;;1.94;100.00;95510.13;1031324;28;20025;-70
2024/03/24 00:01:16;;;;;;;1.98;1.02;;;;;;;2.00;100.00;95519.63;1026868;28;20038;-70
2024/03/24 00:01:47;;;;;;;2.15;0.63;;;;;;;1.96;100.00;95518.50;1025898;28;20034;-70
2024/03/24 00:02:18;;;;;;;1.30;0.63;;;;;;;2.00;100.00;95514.47;1029623;28;20042;-70
2024/03/24 00:02:48;;;;;;;0.68;0.50;;;;;;;1.99;100.00;95515.47;1027144;28;20282;-70
2024/03/24 00:03:19;;;;;;;2.33;0.63;;;;;;;1.98;100.00;95513.91;1031119;28;20225;-69
2024/03/24 00:03:49;;;;;;;0.77;0.40;;;;;;;1.97;100.00;95514.88;1028728;28;20141;-70
2024/03/24 00:04:20;;;;;;;2.25;0.75;;;;;;;1.97;100.00;95514.88;1029843;28;20142;-70
2024/03/24 00:04:51;;;;;;;2.85;0.75;;;;;;;1.95;100.00;95514.31;1031248;28;20096;-70
2024/03/24 00:05:21;;;;;;;4.20;0.60;;;;;;;1.99;100.00;95509.53;1026791;28;20058;-70
2024/03/24 00:05:51;;;;;;;1.75;0.50;;;;;;;1.99;100.00;95515.47;1030714;28;20030;-69
2024/03/24 00:06:22;;;;;;;3.42;0.60;;;;;;;2.02;100.00;95516.84;1027094;28;20034;-69
2024/03/24 00:06:53;;;;;;;0.85;0.60;;;;;;;1.97;100.00;95514.09;1026906;28;20109;-70
2024/03/24 00:07:23;;;;;;;4.13;0.75;;;;;;;1.90;100.00;95506.41;1026262;28;20030;-70
2024/03/24 00:07:53;;;;;;;1.13;0.70;;;;;;;1.64;100.00;95466.88;1031107;28;20495;-70
2024/03/24 00:08:24;;;;;;;0.80;0.80;;;;;;;1.95;100.00;95519.50;1038533;28;20025;-69
2024/03/24 00:08:54;;;;;;;1.38;0.47;;;;;;;1.91;100.00;95510.56;1043352;28;20029;-70
2024/03/24 00:09:25;;;;;;;0.98;0.52;;;;;;;1.92;100.00;95511.38;1034902;28;20033;-70
2024/03/24 00:09:55;;;;;;;5.40;0.70;;;;;;;1.92;100.00;95516.56;1030770;28;20048;-70
2024/03/24 00:10:26;;;;;;;1.58;0.70;;;;;;;1.94;100.00;95515.31;1026329;28;20058;-70
2024/03/24 00:10:57;;;;;;;2.45;0.68;;;;;;;1.91;100.00;95513.16;1023052;28;20031;-70
2024/03/24 00:11:27;;;;;;;2.60;0.70;;;;;;;1.87;100.00;95520.56;1031065;28;20597;-70
2024/03/24 00:11:58;;;;;;;2.20;0.98;;;;;;;1.90;100.00;95519.34;1031101;28;20344;-69
2024/03/24 00:12:28;;;;;;;3.72;0.80;;;;;;;1.91;100.00;95520.91;1022582;28;20381;-70
2024/03/24 00:12:59;;;;;;;1.80;0.40;;;;;;;1.89;100.00;95523.72;1023336;28;20035;-70
2024/03/24 00:13:31;;;;;;;2.03;0.60;;;;;;;1.90;100.00;95519.34;1026834;28;20073;-70
2024/03/24 00:14:03;;;;;;;1.73;0.80;;;;;;;1.90;100.00;95524.50;1026939;28;20031;-70
2024/03/24 00:14:33;;;;;;;2.83;0.60;;;;;;;1.89;100.00;95520.34;1031151;28;20678;-70
2024/03/24 00:15:04;;;;;;;1.85;0.75;;;;;;;1.91;100.00;95518.31;1026698;28;20266;-69
2024/03/24 00:15:34;;;;;;;1.00;0.90;;;;;;;1.86;100.00;95520.78;1026728;28;20031;-69
2024/03/24 00:16:05;;;;;;;2.33;0.70;;;;;;;1.79;100.00;95507.91;1029792;28;20034;-70
2024/03/24 00:16:36;;;;;;;1.38;0.80;;;;;;;1.90;100.00;95527.09;1019034;28;20126;-70
2024/03/24 00:17:07;;;;;;;0.90;0.70;;;;;;;1.92;100.00;95525.09;1027218;28;20061;-69
2024/03/24 00:17:37;;;;;;;5.90;0.70;;;;;;;1.93;100.00;95518.91;1023275;28;20023;-70
2024/03/24 00:18:08;;;;;;;1.30;0.65;;;;;;;1.94;100.00;95525.66;1018987;29;20278;-70
2024/03/24 00:18:38;;;;;;;4.95;0.73;;;;;;;1.85;100.00;95524.38;1025986;28;20034;-72
2024/03/24 00:19:09;;;;;;;2.47;0.82;;;;;;;1.87;100.00;95519.75;1026888;28;20038;-70
2024/03/24 00:19:39;;;;;;;3.55;0.80;;;;;;;1.86;100.00;95520.78;1027625;28;20104;-70
2024/03/24 00:20:10;;;;;;;1.33;0.73;;;;;;;1.85;100.00;95520.00;1030931;28;20133;-70
2024/03/24 00:20:40;;;;;;;3.00;0.80;;;;;;;1.82;100.00;95517.03;1027458;28;20084;-70
2024/03/24 00:21:11;;;;;;;3.75;1.00;;;;;;;1.80;100.00;95519.81;1027130;28;20031;-70
2024/03/24 00:21:41;;;;;;;0.85;0.80;;;;;;;1.79;100.00;95518.25;1019185;28;20039;-70
2024/03/24 00:22:12;;;;;;;5.95;1.35;;;;;;;1.80;100.00;95519.03;1026899;28;20037;-69
2024/03/24 00:22:42;;;;;;;3.92;0.68;;;;;;;1.81;100.00;95526.59;1035165;28;20052;-69
2024/03/24 00:23:13;;;;;;;3.58;0.82;;;;;;;1.81;100.00;95524.00;1034745;28;20021;-70
2024/03/24 00:23:43;;;;;;;1.40;0.77;;;;;;;1.80;100.00;95525.00;1026881;28;20035;-70
2024/03/24 00:24:14;;;;;;;4.30;0.75;;;;;;;1.82;100.00;95527.38;1028923;28;20026;-71
2024/03/24 00:24:44;;;;;;;2.17;0.95;;;;;;;1.80;100.00;95525.00;1026843;28;20027;-68
2024/03/24 00:25:15;;;;;;;2.88;0.63;;;;;;;1.80;100.00;95524.22;1026980;28;20054;-70
2024/03/24 00:25:45;;;;;;;2.33;0.82;;;;;;;1.82;100.00;95522.22;1026785;28;20552;-70
2024/03/24 00:26:15;;;;;;;2.80;0.93;;;;;;;1.78;100.00;95515.88;1026868;28;20105;-70
2024/03/24 00:26:46;;;;;;;2.53;0.93;;;;;;;1.76;100.00;95517.88;1022997;28;20019;-71
2024/03/24 00:27:16;;;;;;;1.48;0.90;;;;;;;1.80;100.00;95521.63;1026707;28;20467;-70
2024/03/24 00:27:47;;;;;;;1.48;1.02;;;;;;;1.73;100.00;95507.97;1026576;28;20027;-70
2024/03/24 00:28:17;;;;;;;1.30;0.70;;;;;;;1.78;100.00;95519.25;1027023;28;20014;-70
2024/03/24 00:28:48;;;;;;;2.15;1.08;;;;;;;1.78;100.00;95515.88;1022257;28;20047;-70
2024/03/24 00:29:18;;;;;;;1.25;0.60;;;;;;;1.78;100.00;95515.88;1020768;28;20032;-70
2024/03/24 00:29:49;;;;;;;2.67;0.50;;;;;;;1.73;100.00;95507.97;1022686;29;20406;-70
2024/03/24 00:30:19;;;;;;;1.50;1.00;;;;;;;1.77;100.00;95516.88;1026656;28;20077;-70
2024/03/24 00:30:50;;;;;;;3.67;1.13;;;;;;;1.79;100.00;95514.88;1030693;28;20512;-70
2024/03/24 00:31:20;;;;;;;4.78;0.85;;;;;;;1.72;100.00;95501.22;1030839;28;20554;-69
2024/03/24 00:31:52;;;;;;;1.17;0.80;;;;;;;1.74;100.00;95509.53;1034735;28;20105;-69
2024/03/24 00:32:22;;;;;;;1.08;0.77;;;;;;;1.76;100.00;95515.28;1031215;28;20034;-70
2024/03/24 00:32:53;;;;;;;3.33;0.95;;;;;;;1.70;100.00;95508.38;1030446;28;20261;-69
2024/03/24 00:33:23;;;;;;;2.03;1.17;;;;;;;1.72;100.00;95507.16;1027335;28;20031;-70
2024/03/24 00:33:54;;;;;;;3.83;1.00;;;;;;;1.70;100.00;95503.22;1030690;28;20203;-70
2024/03/24 00:34:24;;;;;;;4.45;1.20;;;;;;;1.65;100.00;95502.06;1030238;28;20022;-70
2024/03/24 00:34:55;;;;;;;2.72;1.13;;;;;;;1.73;100.00;95513.13;1032301;28;20106;-69
2024/03/24 00:35:26;;;;;;;3.92;1.20;;;;;;;1.76;100.00;95515.28;1030365;28;20495;-70
2024/03/24 00:35:57;;;;;;;2.30;1.13;;;;;;;1.69;100.00;95509.41;1030487;28;20285;-70
2024/03/24 00:36:27;;;;;;;5.47;1.27;;;;;;;1.74;100.00;95518.06;1024792;28;20118;-69
2024/03/24 00:36:58;;;;;;;1.80;1.10;;;;;;;1.69;100.00;95507.59;1026971;28;20031;-70
2024/03/24 00:37:28;;;;;;;1.33;1.10;;;;;;;1.71;100.00;95508.19;1033480;28;20039;-70
2024/03/24 00:37:58;;;;;;;0.80;0.77;;;;;;;1.71;100.00;95509.94;1034611;28;20046;-69
2024/03/24 00:38:29;;;;;;;3.03;0.80;;;;;;;1.71;100.00;95515.13;1031746;28;20077;-70
2024/03/24 00:38:59;;;;;;;4.93;1.27;;;;;;;1.65;100.00;95502.06;1030953;28;20046;-70
2024/03/24 00:39:30;;;;;;;3.88;1.02;;;;;;;1.69;100.00;95510.19;1028893;28;20062;-70
2024/03/24 00:40:00;;;;;;;1.15;0.90;;;;;;;1.72;100.00;95511.56;1026790;28;20027;-69
2024/03/24 00:40:31;;;;;;;2.20;1.17;;;;;;;1.67;100.00;95508.81;1026974;28;20054;-70
2024/03/24 00:41:01;;;;;;;3.88;1.20;;;;;;;1.66;100.00;95508.00;1022688;28;20449;-70
2024/03/24 00:41:32;;;;;;;0.80;0.70;;;;;;;1.72;100.00;95514.94;1022908;29;20031;-70
2024/03/24 00:42:02;;;;;;;4.68;1.00;;;;;;;1.73;100.00;95513.91;1030686;28;20026;-70
2024/03/24 00:42:33;;;;;;;1.88;1.08;;;;;;;1.75;100.00;95505.97;1030821;28;20018;-70
2024/03/24 00:43:03;;;;;;;2.17;1.10;;;;;;;1.70;100.00;95504.00;1035072;28;20033;-70
2024/03/24 00:43:35;;;;;;;1.15;0.80;;;;;;;1.63;100.00;95493.72;1038466;28;20279;-70
2024/03/24 00:44:07;;;;;;;3.40;1.27;;;;;;;1.62;100.00;95497.31;1026794;28;20015;-70
2024/03/24 00:44:37;;;;;;;1.30;1.20;;;;;;;1.69;100.00;95511.97;1024795;28;20338;-70
2024/03/24 00:45:08;;;;;;;3.47;0.95;;;;;;;1.65;100.00;95502.06;1026753;28;20357;-70
2024/03/24 00:45:38;;;;;;;1.27;1.17;;;;;;;1.69;100.00;95509.41;1026670;28;20625;-69
2024/03/24 00:46:09;;;;;;;1.30;0.85;;;;;;;1.63;100.00;95498.09;1030861;28;20339;-69
2024/03/24 00:46:39;;;;;;;1.08;0.98;;;;;;;1.62;100.00;95499.09;1030753;28;20449;-69
2024/03/24 00:47:10;;;;;;;1.10;0.60;;;;;;;1.61;100.00;95500.91;1023034;28;20030;-70
2024/03/24 00:47:41;;;;;;;2.28;1.00;;;;;;;1.69;100.00;95501.63;1029913;28;20508;-69
2024/03/24 00:48:11;;;;;;;2.00;1.17;;;;;;;1.69;100.00;95509.41;1031402;28;20448;-70
2024/03/24 00:48:42;;;;;;;2.25;1.00;;;;;;;1.70;100.00;95511.75;1030336;28;20034;-70
2024/03/24 00:49:12;;;;;;;2.58;1.20;;;;;;;1.70;100.00;95503.22;1030779;28;20026;-70
2024/03/24 00:49:43;;;;;;;4.20;1.42;;;;;;;1.71;100.00;95504.78;1035571;28;20034;-70
2024/03/24 00:50:14;;;;;;;2.10;1.00;;;;;;;1.72;100.00;95503.78;1038573;28;20517;-70
2024/03/24 00:50:45;;;;;;;0.75;0.75;;;;;;;1.70;100.00;95503.22;1034821;28;20546;-70
2024/03/24 00:51:15;;;;;;;1.80;1.20;;;;;;;1.74;100.00;95505.16;1029303;28;20736;-70
2024/03/24 00:51:46;;;;;;;2.28;1.10;;;;;;;1.70;100.00;95498.03;1026255;28;20325;-70
2024/03/24 00:52:16;;;;;;;1.33;1.00;;;;;;;1.73;100.00;95503.56;1030236;28;20493;-70
2024/03/24 00:52:47;;;;;;;1.30;1.08;;;;;;;1.70;100.00;95498.81;1027035;28;20039;-70
2024/03/24 00:53:17;;;;;;;1.73;1.20;;;;;;;1.71;100.00;95497.03;1025972;28;20031;-70
2024/03/24 00:53:47;;;;;;;0.98;0.80;;;;;;;1.71;100.00;95491.84;1030751;28;20030;-70
2024/03/24 00:54:18;;;;;;;1.15;1.05;;;;;;;1.73;100.00;95492.44;1025289;28;20038;-71
2024/03/24 00:54:48;;;;;;;1.92;1.30;;;;;;;1.74;100.00;95499.97;1026771;28;20083;-70
2024/03/24 00:55:19;;;;;;;1.23;1.10;;;;;;;1.74;100.00;95499.19;1026828;28;20042;-69
2024/03/24 00:55:49;;;;;;;1.20;1.10;;;;;;;1.75;100.00;95495.63;1026790;28;20520;-70
2024/03/24 00:56:20;;;;;;;2.58;1.35;;;;;;;1.70;100.00;95493.66;1026804;28;20031;-70
2024/03/24 00:56:50;;;;;;;2.10;1.25;;;;;;;1.73;100.00;95498.41;1030051;28;20500;-70
2024/03/24 00:57:21;;;;;;;2.17;1.10;;;;;;;1.73;100.00;95495.81;1026545;28;20038;-70
2024/03/24 00:57:51;;;;;;;1.60;1.10;;;;;;;1.73;100.00;95489.84;1026961;28;20057;-69
2024/03/24 00:58:22;;;;;;;4.97;1.33;;;;;;;1.76;100.00;95494.59;1030243;28;20402;-70
2024/03/24 00:58:52;;;;;;;5.07;1.02;;;;;;;1.77;100.00;95488.41;1026635;28;20039;-70
2024/03/24 00:59:23;;;;;;;1.50;0.90;;;;;;;1.72;100.00;95488.28;1027024;28;20105;-69
2024/03/24 00:59:53;;;;;;;3.35;1.15;;;;;;;1.76;100.00;95492.03;1026827;28;20411;-70
2024/03/24 01:00:24;;;;;;;1.73;1.10;;;;;;;1.77;100.00;95485.84;1032612;28;20030;-70
2024/03/24 01:00:56;;;;;;;1.40;1.10;;;;;;;1.73;100.00;95487.28;1034871;28;20025;-70
2024/03/24 01:01:26;;;;;;;0.80;0.80;;;;;;;1.76;100.00;95484.25;1030167;28;20022;-70
2024/03/24 01:01:57;;;;;;;1.90;0.80;;;;;;;1.69;100.00;95478.34;1030477;28;20270;-70
2024/03/24 01:02:27;;;;;;;0.98;0.90;;;;;;;1.70;100.00;95483.31;1028673;28;20030;-69
2024/03/24 01:02:58;;;;;;;3.40;1.20;;;;;;;1.67;100.00;95472.59;1035361;28;20372;-70
2024/03/24 01:03:28;;;;;;;2.33;1.17;;;;;;;1.72;100.00;95481.31;1030915;28;20460;-70
2024/03/24 01:03:59;;;;;;;2.63;1.08;;;;;;;1.75;100.00;95482.69;1027414;28;20041;-70
2024/03/24 01:04:30;;;;;;;1.13;0.93;;;;;;;1.73;100.00;95482.88;1029015;28;20516;-70
2024/03/24 01:05:01;;;;;;;1.25;0.80;;;;;;;1.78;100.00;95487.44;1027176;28;20089;-70
2024/03/24 01:05:31;;;;;;;6.75;1.30;;;;;;;1.77;100.00;95483.25;1029129;28;20031;-71
2024/03/24 01:06:04;;;;;;;4.60;1.23;;;;;;;1.69;100.00;95475.78;1031302;28;20443;-69
2024/03/24 01:06:34;;;;;;;4.45;1.15;;;;;;;1.74;100.00;95479.28;1031721;28;20105;-70
2024/03/24 01:07:05;;;;;;;2.78;1.40;;;;;;;1.73;100.00;95489.84;1030493;28;20274;-70
2024/03/24 01:07:35;;;;;;;1.30;1.10;;;;;;;1.72;100.00;95483.09;1026918;28;20396;-69
2024/03/24 01:08:06;;;;;;;1.88;0.98;;;;;;;1.73;100.00;95479.50;1026471;28;20042;-70
2024/03/24 01:08:36;;;;;;;2.15;1.10;;;;;;;1.74;100.00;95483.66;1022131;28;20038;-70
2024/03/24 01:09:07;;;;;;;1.73;1.05;;;;;;;1.71;100.00;95476.34;1030863;28;20035;-70
2024/03/24 01:09:38;;;;;;;0.95;0.88;;;;;;;1.71;100.00;95484.09;1034704;28;20117;-70
2024/03/24 01:10:08;;;;;;;0.88;0.80;;;;;;;1.74;100.00;95489.63;1027729;28;20262;-70
2024/03/24 01:10:39;;;;;;;1.40;1.27;;;;;;;1.70;100.00;95482.53;1030418;28;20026;-70
2024/03/24 01:11:11;;;;;;;1.08;0.98;;;;;;;1.72;100.00;95485.69;1025897;28;20058;-69
2024/03/24 01:11:41;;;;;;;1.17;1.08;;;;;;;1.70;100.00;95492.88;1027527;28;20070;-69
2024/03/24 01:12:12;;;;;;;1.17;1.05;;;;;;;1.65;100.00;95480.59;1030519;28;20751;-68
2024/03/24 01:12:51;;;;;;;2.55;1.58;;;;;;;1.69;100.00;95486.91;1026969;28;20087;-70
2024/03/24 01:13:22;;;;;;;1.40;1.30;;;;;;;1.68;100.00;95484.50;1022719;29;20031;-70
2024/03/24 01:13:52;;;;;;;1.58;1.23;;;;;;;1.69;100.00;95489.50;1023811;28;20271;-70
2024/03/24 01:14:23;;;;;;;1.98;1.10;;;;;;;1.69;100.00;95484.31;1022964;29;20023;-70
2024/03/24 01:14:53;;;;;;;2.65;1.10;;;;;;;1.68;100.00;95482.75;1024192;28;20114;-69
2024/03/24 01:15:24;;;;;;;4.97;1.17;;;;;;;1.71;100.00;95481.50;1030727;28;20037;-70
2024/03/24 01:15:54;;;;;;;1.27;1.02;;;;;;;1.69;100.00;95479.16;1030864;28;20030;-70
2024/03/24 01:16:25;;;;;;;1.88;1.10;;;;;;;1.62;100.00;95475.84;1026695;28;20492;-70
2024/03/24 01:16:55;;;;;;;1.77;1.08;;;;;;;1.69;100.00;95483.53;1018884;29;20036;-68
2024/03/24 01:17:26;;;;;;;2.00;1.02;;;;;;;1.63;100.00;95467.06;1022826;28;20107;-70
2024/03/24 01:17:56;;;;;;;1.10;1.00;;;;;;;1.72;100.00;95475.34;1022723;28;20066;-70
2024/03/24 01:18:27;;;;;;;1.73;1.25;;;;;;;1.73;100.00;95479.50;1022597;28;20039;-70
2024/03/24 01:18:57;;;;;;;1.90;1.20;;;;;;;1.74;100.00;95473.31;1026512;28;20030;-70
2024/03/24 01:19:28;;;;;;;1.30;1.20;;;;;;;1.75;100.00;95472.34;1022929;28;20034;-69
2024/03/24 01:19:58;;;;;;;1.55;1.10;;;;;;;1.75;100.00;95474.94;1026897;28;20030;-70
2024/03/24 01:20:29;;;;;;;1.17;1.00;;;;;;;1.78;100.00;95474.50;1026564;28;20027;-71
2024/03/24 01:21:00;;;;;;;2.97;1.05;;;;;;;1.77;100.00;95462.56;1026726;28;20039;-70
2024/03/24 01:21:30;;;;;;;1.33;0.93;;;;;;;1.79;100.00;95471.69;1026092;28;20274;-71
2024/03/24 01:22:01;;;;;;;3.20;0.93;;;;;;;1.80;100.00;95467.31;1026764;28;20558;-70
2024/03/24 01:22:32;;;;;;;3.50;1.60;;;;;;;1.80;100.00;95462.91;1029225;28;20030;-68
2024/03/24 01:23:02;;;;;;;1.40;1.02;;;;;;;1.82;100.00;95460.13;1034942;28;20029;-70
2024/03/24 01:23:33;;;;;;;1.33;1.05;;;;;;;1.82;100.00;95465.31;1034658;28;20404;-70
2024/03/24 01:24:04;;;;;;;2.92;0.90;;;;;;;1.73;100.00;95445.88;1034849;28;20451;-69
2024/03/24 01:24:34;;;;;;;2.38;1.40;;;;;;;1.81;100.00;95455.94;1030699;28;20026;-70
2024/03/24 01:25:06;;;;;;;6.70;1.58;;;;;;;1.77;100.00;95453.00;1022829;28;20047;-70
2024/03/24 01:25:36;;;;;;;4.25;1.42;;;;;;;1.82;100.00;95460.91;1023043;29;20023;-70
2024/03/24 01:26:06;;;;;;;2.42;1.48;;;;;;;1.83;100.00;95452.16;1023520;28;20777;-70
2024/03/24 01:26:37;;;;;;;1.73;1.00;;;;;;;1.81;100.00;95454.16;1027052;28;20099;-70
2024/03/24 01:27:07;;;;;;;1.48;0.95;;;;;;;1.82;100.00;95462.72;1030970;28;20225;-69
2024/03/24 01:27:38;;;;;;;2.35;1.02;;;;;;;1.79;100.00;95445.81;1026455;28;20069;-69
2024/03/24 01:28:08;;;;;;;3.60;1.10;;;;;;;1.86;100.00;95456.09;1030969;28;20395;-70
2024/03/24 01:28:39;;;;;;;2.58;1.40;;;;;;;1.82;100.00;95450.56;1026114;28;20595;-71
2024/03/24 01:29:11;;;;;;;2.60;1.73;;;;;;;1.83;100.00;95452.16;1023324;28;20019;-69
2024/03/24 01:29:41;;;;;;;1.70;1.17;;;;;;;1.84;100.00;95450.34;1030612;28;20230;-69
2024/03/24 01:30:12;;;;;;;1.95;1.20;;;;;;;1.81;100.00;95448.19;1023005;28;20263;-70
2024/03/24 01:30:43;;;;;;;3.53;1.25;;;;;;;1.82;100.00;95449.78;1027519;28;20399;-70
2024/03/24 01:31:14;;;;;;;2.88;1.33;;;;;;;1.83;100.00;95457.31;1034594;28;20045;-69
2024/03/24 01:31:44;;;;;;;1.48;1.10;;;;;;;1.80;100.00;95447.41;1035014;28;20272;-70
2024/03/24 01:32:15;;;;;;;1.38;0.95;;;;;;;1.80;100.00;95446.59;1039356;28;20048;-70
2024/03/24 01:32:45;;;;;;;2.00;1.30;;;;;;;1.75;100.00;95438.72;1033780;28;20093;-70
2024/03/24 01:33:16;;;;;;;1.15;0.85;;;;;;;1.80;100.00;95446.59;1026409;28;20019;-70
2024/03/24 01:33:46;;;;;;;3.78;1.20;;;;;;;1.79;100.00;95448.41;1023043;28;20031;-70
2024/03/24 01:34:17;;;;;;;2.08;0.95;;;;;;;1.79;100.00;95450.22;1026604;28;20030;-70
2024/03/24 01:34:47;;;;;;;1.95;0.98;;;;;;;1.72;100.00;95433.97;1026122;28;20609;-71
2024/03/24 01:35:18;;;;;;;4.78;0.80;;;;;;;1.80;100.00;95454.38;1026020;28;20133;-69
2024/03/24 01:35:48;;;;;;;1.23;1.13;;;;;;;1.74;100.00;95437.13;1022752;29;20019;-70
2024/03/24 01:36:18;;;;;;;2.25;1.23;;;;;;;1.79;100.00;95440.66;1027550;28;20119;-70
2024/03/24 01:36:49;;;;;;;1.80;1.17;;;;;;;1.81;100.00;95443.81;1028457;28;20106;-71
2024/03/24 01:37:19;;;;;;;0.90;0.90;;;;;;;1.80;100.00;95438.84;1027845;28;20575;-71
2024/03/24 01:37:50;;;;;;;1.20;1.10;;;;;;;1.75;100.00;95433.53;1023957;28;20031;-70
2024/03/24 01:38:20;;;;;;;2.67;1.38;;;;;;;1.70;100.00;95420.44;1023525;28;20046;-68
2024/03/24 01:38:51;;;;;;;1.80;1.00;;;;;;;1.83;100.00;95446.19;1028228;28;20035;-70
2024/03/24 01:39:21;;;;;;;2.08;1.20;;;;;;;1.80;100.00;95441.44;1026386;28;20042;-70
2024/03/24 01:39:52;;;;;;;1.85;1.25;;;;;;;1.82;100.00;95444.63;1021701;28;20078;-70
2024/03/24 01:40:22;;;;;;;0.90;0.90;;;;;;;1.79;100.00;95437.28;1022997;28;20034;-70
2024/03/24 01:40:53;;;;;;;2.83;1.30;;;;;;;1.80;100.00;95438.84;1030667;28;20041;-70
2024/03/24 01:41:23;;;;;;;2.15;1.40;;;;;;;1.82;100.00;95439.44;1026508;28;20492;-70
2024/03/24 01:41:54;;;;;;;3.22;1.42;;;;;;;1.85;100.00;95436.44;1022835;29;20034;-70
2024/03/24 01:42:24;;;;;;;2.75;1.42;;;;;;;1.87;100.00;95440.34;1026657;28;20481;-70
2024/03/24 01:42:55;;;;;;;2.53;1.40;;;;;;;1.87;100.00;95437.75;1020833;29;20498;-70
2024/03/24 01:43:25;;;;;;;1.75;1.63;;;;;;;1.85;100.00;95431.25;1030790;28;20026;-70
2024/03/24 01:43:55;;;;;;;1.55;1.20;;;;;;;1.89;100.00;95434.97;1034601;28;20029;-69
2024/03/24 01:44:26;;;;;;;1.88;1.10;;;;;;;1.89;100.00;95437.56;1026580;28;20026;-69
2024/03/24 01:44:56;;;;;;;2.45;1.10;;;;;;;1.90;100.00;95436.56;1026527;28;20019;-70
2024/03/24 01:45:27;;;;;;;2.50;1.35;;;;;;;1.92;100.00;95431.19;1026761;28;20030;-70
2024/03/24 01:45:57;;;;;;;1.45;1.35;;;;;;;1.89;100.00;95430.59;1027621;28;20027;-70
2024/03/24 01:46:29;;;;;;;1.83;1.25;;;;;;;1.95;100.00;95433.34;1027241;28;20026;-69
2024/03/24 01:46:59;;;;;;;1.85;1.20;;;;;;;1.93;100.00;95438.72;1027768;28;20442;-70
2024/03/24 01:47:30;;;;;;;1.65;1.30;;;;;;;1.91;100.00;95422.59;1027394;28;20269;-70
2024/03/24 01:48:01;;;;;;;4.70;1.52;;;;;;;1.93;100.00;95430.16;1029608;28;20034;-71
2024/03/24 01:48:31;;;;;;;2.05;1.50;;;;;;;1.94;100.00;95431.75;1035207;28;20272;-71
2024/03/24 01:49:02;;;;;;;4.03;1.35;;;;;;;1.94;100.00;95435.09;1023380;29;20031;-70
2024/03/24 01:49:32;;;;;;;2.67;1.63;;;;;;;1.93;100.00;95430.94;1023351;28;20035;-70
2024/03/24 01:50:04;;;;;;;1.38;1.02;;;;;;;1.94;100.00;95436.91;1023466;29;20033;-70
2024/03/24 01:50:35;;;;;;;3.72;1.52;;;;;;;1.91;100.00;95432.94;1023236;29;20015;-70
2024/03/24 01:51:09;;;;;;;1.63;1.23;;;;;;;1.83;100.00;95431.44;1027531;28;20270;-70
2024/03/24 01:51:39;;;;;;;2.42;1.15;;;;;;;1.79;100.00;95432.88;1024034;28;20471;-70
2024/03/24 01:52:12;;;;;;;1.17;1.02;;;;;;;1.72;100.00;95418.44;1023174;29;20271;-70
2024/03/24 01:52:43;;;;;;;2.40;1.50;;;;;;;1.80;100.00;95431.88;1027806;28;20026;-71
2024/03/24 01:53:13;;;;;;;2.47;1.30;;;;;;;1.78;100.00;95430.53;1030773;28;20281;-71
2024/03/24 01:53:44;;;;;;;4.00;1.60;;;;;;;1.77;100.00;95434.09;1031869;28;20065;-70
2024/03/24 01:54:14;;;;;;;2.67;1.15;;;;;;;1.74;100.00;95424.19;1035632;28;20029;-69
2024/03/24 01:54:45;;;;;;;1.17;1.02;;;;;;;1.73;100.00;95423.41;1031250;28;20022;-70
2024/03/24 01:55:16;;;;;;;1.30;1.13;;;;;;;1.71;100.00;95422.03;1031773;28;20034;-70
2024/03/24 01:55:46;;;;;;;3.22;0.95;;;;;;;1.68;100.00;95427.63;1031393;28;20030;-70
2024/03/24 01:56:17;;;;;;;3.00;1.30;;;;;;;1.63;100.00;95421.31;1031154;28;20494;-69
2024/03/24 01:56:48;;;;;;;1.60;1.20;;;;;;;1.64;100.00;95422.91;1031518;28;20125;-70
2024/03/24 01:57:18;;;;;;;2.22;1.20;;;;;;;1.62;100.00;95419.72;1031516;28;20327;-70
2024/03/24 01:57:49;;;;;;;0.82;0.80;;;;;;;1.55;100.00;95415.63;1027342;28;20496;-69
2024/03/24 01:58:19;;;;;;;1.45;1.02;;;;;;;1.49;100.00;95419.06;1031502;28;20026;-70
2024/03/24 01:58:50;;;;;;;1.00;0.90;;;;;;;1.48;100.00;95418.28;1030710;28;20026;-70
2024/03/24 01:59:20;;;;;;;2.28;1.05;;;;;;;1.43;100.00;95420.69;1031657;28;20033;-69
2024/03/24 01:59:51;;;;;;;0.80;0.73;;;;;;;1.41;100.00;95418.34;1027419;28;20435;-69
2024/03/24 02:00:22;;;;;;;2.72;1.00;;;;;;;1.42;100.00;95401.03;1027067;28;20105;-70
2024/03/24 02:00:52;;;;;;;1.88;0.90;;;;;;;1.35;100.00;95408.06;1027677;28;20117;-70
2024/03/24 02:01:22;;;;;;;1.50;1.02;;;;;;;1.30;100.00;95398.34;1027266;28;20067;-69
2024/03/24 02:01:53;;;;;;;3.33;1.08;;;;;;;1.29;100.00;95406.31;1023698;28;20509;-70
2024/03/24 02:02:24;;;;;;;3.75;1.10;;;;;;;1.33;100.00;95407.47;1027621;28;20034;-70
2024/03/24 02:02:54;;;;;;;1.27;0.82;;;;;;;1.27;100.00;95405.72;1031356;28;20018;-69
2024/03/24 02:03:27;;;;;;;2.92;1.00;;;;;;;1.22;100.00;95408.19;1031792;28;20030;-68
2024/03/24 02:03:57;;;;;;;4.82;0.70;;;;;;;1.24;100.00;95400.97;1031659;28;20251;-70
2024/03/24 02:04:28;;;;;;;2.00;0.90;;;;;;;1.25;100.00;95405.16;1035270;28;20281;-70
2024/03/24 02:04:58;;;;;;;1.17;0.90;;;;;;;1.18;100.00;95395.69;1031614;28;20026;-70
2024/03/24 02:05:30;;;;;;;1.80;0.98;;;;;;;1.24;100.00;95404.38;1035337;28;20028;-70
2024/03/24 02:06:00;;;;;;;1.45;0.98;;;;;;;1.24;100.00;95403.56;1043606;28;20087;-70
2024/03/24 02:06:31;;;;;;;1.00;0.90;;;;;;;1.23;100.00;95399.41;1039928;28;20260;-70
2024/03/24 02:07:01;;;;;;;2.25;0.90;;;;;;;1.24;100.00;95406.16;1038982;28;20052;-70
2024/03/24 02:07:32;;;;;;;0.77;0.77;;;;;;;1.21;100.00;95406.56;1035756;28;20080;-70
2024/03/24 02:08:02;;;;;;;2.78;0.73;;;;;;;1.13;100.00;95392.91;1031312;28;20388;-70
2024/03/24 02:08:33;;;;;;;2.78;0.85;;;;;;;1.18;100.00;95406.00;1026771;28;20034;-70
2024/03/24 02:09:03;;;;;;;0.85;0.73;;;;;;;1.10;100.00;95398.50;1027600;28;20034;-70
2024/03/24 02:09:34;;;;;;;2.00;0.85;;;;;;;1.18;100.00;95402.63;1035492;28;20092;-70
2024/03/24 02:10:05;;;;;;;2.17;1.00;;;;;;;1.18;100.00;95398.25;1039507;28;20026;-70
2024/03/24 02:10:35;;;;;;;2.67;0.80;;;;;;;1.17;100.00;95399.28;1039699;28;20748;-69
2024/03/24 02:11:05;;;;;;;3.03;1.10;;;;;;;1.16;100.00;95400.25;1043384;28;20593;-70
2024/03/24 02:11:36;;;;;;;3.15;0.95;;;;;;;1.15;100.00;95396.09;1031696;28;20098;-70
2024/03/24 02:12:07;;;;;;;1.48;0.75;;;;;;;1.21;100.00;95396.25;1031137;28;20034;-70
2024/03/24 02:12:37;;;;;;;4.05;1.00;;;;;;;1.21;100.00;95397.06;1031322;28;20026;-70
2024/03/24 02:13:08;;;;;;;2.05;0.95;;;;;;;1.20;100.00;95392.06;1031839;28;20511;-70
2024/03/24 02:13:38;;;;;;;3.05;1.00;;;;;;;1.21;100.00;95388.47;1035402;28;20105;-70
2024/03/24 02:14:09;;;;;;;0.60;0.60;;;;;;;1.20;100.00;95381.75;1031125;28;20088;-69
2024/03/24 02:14:39;;;;;;;2.60;0.65;;;;;;;1.22;100.00;95392.66;1031621;28;20057;-70
2024/03/24 02:15:12;;;;;;;1.55;0.82;;;;;;;1.22;100.00;95387.50;1027213;28;20050;-70
2024/03/24 02:15:43;;;;;;;1.35;1.00;;;;;;;1.18;100.00;95387.91;1027302;28;20026;-69
2024/03/24 02:16:13;;;;;;;2.05;0.70;;;;;;;1.17;100.00;95388.13;1027602;28;20771;-70
2024/03/24 02:16:44;;;;;;;0.68;0.68;;;;;;;1.10;100.00;95379.63;1031728;28;20030;-71
2024/03/24 02:17:14;;;;;;;1.65;0.70;;;;;;;1.18;100.00;95387.91;1031254;28;20030;-70
2024/03/24 02:17:44;;;;;;;3.80;0.98;;;;;;;1.18;100.00;95390.50;1039372;28;20034;-70
2024/03/24 02:18:15;;;;;;;0.70;0.65;;;;;;;1.19;100.00;95386.13;1027048;28;20262;-70
2024/03/24 02:18:46;;;;;;;2.45;0.85;;;;;;;1.20;100.00;95389.50;1027103;28;20034;-70
2024/03/24 02:19:16;;;;;;;3.20;0.80;;;;;;;1.17;100.00;95391.53;1034974;28;20040;-70
2024/03/24 02:19:46;;;;;;;2.05;1.02;;;;;;;1.16;100.00;95383.97;1031695;28;20056;-70
2024/03/24 02:20:18;;;;;;;2.47;1.27;;;;;;;1.17;100.00;95382.94;1043458;28;20028;-69
2024/03/24 02:20:48;;;;;;;1.77;1.20;;;;;;;1.15;100.00;95379.81;1039056;28;20025;-70
2024/03/24 02:21:19;;;;;;;0.80;0.80;;;;;;;1.12;100.00;95381.00;1031462;28;20313;-70
2024/03/24 02:21:49;;;;;;;1.20;1.00;;;;;;;1.15;100.00;95380.59;1026047;28;20030;-69
2024/03/24 02:22:19;;;;;;;2.00;0.95;;;;;;;1.15;100.00;95383.19;1027205;28;20026;-70
2024/03/24 02:22:50;;;;;;;1.20;1.10;;;;;;;1.13;100.00;95390.34;1030707;28;20034;-70
2024/03/24 02:23:20;;;;;;;1.10;1.00;;;;;;;1.15;100.00;95384.97;1035510;28;20022;-70
2024/03/24 02:23:51;;;;;;;2.92;1.20;;;;;;;1.16;100.00;95384.75;1036003;28;20018;-69
2024/03/24 02:24:21;;;;;;;2.38;0.98;;;;;;;1.14;100.00;95381.59;1027262;28;20030;-70